createdAt,value
2023-01-10T00:01:09.057Z,98.66
2023-01-10T00:03:39.256Z,98.80
2023-01-10T00:06:11.422Z,98.66
2023-01-10T00:08:42.918Z,98.65
2023-01-10T00:11:31.500Z,98.76
2023-01-10T00:14:03.254Z,98.72
2023-01-10T00:16:35.109Z,98.74
2023-01-10T00:19:05.762Z,98.61
2023-01-10T00:21:38.654Z,98.67
2023-01-10T00:24:18.035Z,98.77
2023-01-10T00:26:57.312Z,98.69
2023-01-10T00:29:31.639Z,98.86
2023-01-10T00:32:20.301Z,98.96
2023-01-10T00:34:51.836Z,98.81
2023-01-10T00:37:22.490Z,98.61
2023-01-10T00:39:56.893Z,98.67
2023-01-10T00:42:44.758Z,98.82
2023-01-10T00:45:18.425Z,98.54
2023-01-10T00:47:49.657Z,98.78
2023-01-10T00:50:20.290Z,98.68
2023-01-10T00:52:50.829Z,98.80
2023-01-10T00:55:22.475Z,98.81
2023-01-10T00:57:52.481Z,99.20
2023-01-10T01:00:23.903Z,98.66
2023-01-10T01:02:54.418Z,98.91
2023-01-10T01:05:25.465Z,98.72
2023-01-10T01:07:55.272Z,98.84
2023-01-10T01:10:27.210Z,98.79
2023-01-10T01:13:02.436Z,98.85
2023-01-10T01:15:35.578Z,98.74
2023-01-10T01:18:08.394Z,99.01
2023-01-10T01:20:40.808Z,98.51
2023-01-10T01:23:12.285Z,98.48
2023-01-10T01:25:41.390Z,98.81
2023-01-10T01:28:14.719Z,98.55
2023-01-10T01:30:45.315Z,98.34
2023-01-10T01:33:17.158Z,98.14
2023-01-10T01:35:47.210Z,98.10
2023-01-10T01:38:18.514Z,98.37
2023-01-10T01:40:51.079Z,98.57
2023-01-10T01:43:24.776Z,98.64
2023-01-10T01:45:56.261Z,98.37
2023-01-10T01:48:29.105Z,98.65
2023-01-10T01:51:19.893Z,98.49
2023-01-10T01:53:58.819Z,98.02
2023-01-10T01:56:49.361Z,98.07
2023-01-10T01:59:24.421Z,97.90
2023-01-10T02:01:58.660Z,97.80
2023-01-10T02:04:38.071Z,97.77
2023-01-10T02:07:08.486Z,98.10
2023-01-10T02:09:51.834Z,97.93
2023-01-10T02:12:23.286Z,98.10
2023-01-10T02:14:56.519Z,97.95
2023-01-10T02:17:27.779Z,98.17
2023-01-10T02:20:00.454Z,98.47
2023-01-10T02:22:42.055Z,98.52
2023-01-10T02:25:14.203Z,97.85
2023-01-10T02:28:02.995Z,97.63
2023-01-10T02:30:34.386Z,97.99
2023-01-10T02:33:14.927Z,98.01
2023-01-10T02:35:53.389Z,97.97
2023-01-10T02:38:26.944Z,97.57
2023-01-10T02:41:17.157Z,97.59
2023-01-10T02:43:55.051Z,97.47
2023-01-10T02:46:28.038Z,97.46
2023-01-10T02:49:00.366Z,97.19
2023-01-10T02:51:35.228Z,97.11
2023-01-10T02:54:21.484Z,97.07
2023-01-10T02:57:26.685Z,96.99
2023-01-10T02:59:59.432Z,97.02
2023-01-10T03:02:29.397Z,96.85
2023-01-10T03:05:02.716Z,97.05
2023-01-10T03:07:36.209Z,97.12
2023-01-10T03:10:05.939Z,97.24
2023-01-10T03:12:41.358Z,96.97
2023-01-10T03:15:14.801Z,97.18
2023-01-10T03:17:45.105Z,97.14
2023-01-10T03:20:15.929Z,97.30
2023-01-10T03:22:49.318Z,97.08
2023-01-10T03:25:22.755Z,96.79
2023-01-10T03:27:52.871Z,97.08
2023-01-10T03:30:31.633Z,97.26
2023-01-10T03:33:02.893Z,96.90
2023-01-10T03:35:53.661Z,96.95
2023-01-10T03:38:48.522Z,97.05
2023-01-10T03:41:53.898Z,96.84
2023-01-10T03:44:51.604Z,96.79
2023-01-10T03:47:41.383Z,96.57
2023-01-10T03:50:27.225Z,96.37
2023-01-10T03:53:15.369Z,96.24
2023-01-10T03:55:46.574Z,96.57
2023-01-10T03:58:24.206Z,96.19
2023-01-10T04:00:55.412Z,96.68
2023-01-10T04:03:34.091Z,96.83
2023-01-10T04:06:05.066Z,96.86
2023-01-10T04:08:36.827Z,96.95
2023-01-10T04:11:08.028Z,97.15
2023-01-10T04:13:42.965Z,97.24
2023-01-10T04:16:16.100Z,97.43
2023-01-10T04:18:48.823Z,97.22
2023-01-10T04:21:21.401Z,97.57
2023-01-10T04:23:54.399Z,97.48
2023-01-10T04:26:26.771Z,97.50
2023-01-10T04:28:58.988Z,97.39
2023-01-10T04:31:28.052Z,97.47
2023-01-10T04:34:03.296Z,96.97
2023-01-10T04:36:37.114Z,96.65
2023-01-10T04:39:10.461Z,96.74
2023-01-10T04:41:43.991Z,97.07
2023-01-10T04:44:16.614Z,97.25
2023-01-10T04:46:48.845Z,96.43
2023-01-10T04:49:18.369Z,96.40
2023-01-10T04:51:53.004Z,96.03
2023-01-10T04:55:01.993Z,96.00
2023-01-10T04:57:38.561Z,96.00
2023-01-10T05:00:16.509Z,96.30
2023-01-10T05:02:47.741Z,96.39
2023-01-10T05:05:16.904Z,96.28
2023-01-10T05:07:47.709Z,96.55
2023-01-10T05:10:30.779Z,96.72
2023-01-10T05:13:01.477Z,96.41
2023-01-10T05:15:36.570Z,96.53
2023-01-10T05:18:27.885Z,96.03
2023-01-10T05:21:30.194Z,96.42
2023-01-10T05:24:00.983Z,96.22
2023-01-10T05:26:47.402Z,96.69
2023-01-10T05:29:41.543Z,96.68
2023-01-10T05:32:44.080Z,96.80
2023-01-10T05:35:40.699Z,96.45
2023-01-10T05:38:16.329Z,96.53
2023-01-10T05:40:55.141Z,96.57
2023-01-10T05:43:29.565Z,96.63
2023-01-10T05:46:03.875Z,96.42
2023-01-10T05:48:35.663Z,96.65
2023-01-10T05:51:10.483Z,96.56
2023-01-10T05:53:42.848Z,96.60
2023-01-10T05:57:03.703Z,96.34
2023-01-10T05:59:35.110Z,96.63
2023-01-10T06:02:06.677Z,97.19
2023-01-10T06:04:37.263Z,96.80
2023-01-10T06:07:06.544Z,96.98
2023-01-10T06:09:37.737Z,97.21
2023-01-10T06:12:09.807Z,97.11
2023-01-10T06:14:41.325Z,97.03
2023-01-10T06:17:12.027Z,96.41
2023-01-10T06:19:43.326Z,96.45
2023-01-10T06:22:14.210Z,96.32
2023-01-10T06:24:43.358Z,96.41
2023-01-10T06:27:14.572Z,96.69
2023-01-10T06:30:28.699Z,96.60
2023-01-10T06:34:08.060Z,96.51
2023-01-10T06:37:42.870Z,96.50
2023-01-10T06:40:48.396Z,96.88
2023-01-10T06:43:59.350Z,97.13
2023-01-10T06:46:28.446Z,96.99
2023-01-10T06:48:58.582Z,96.78
2023-01-10T06:52:06.761Z,96.87
2023-01-10T06:55:40.941Z,97.03
2023-01-10T06:58:35.300Z,96.83
2023-01-10T07:01:15.052Z,96.84
2023-01-10T07:08:28.121Z,96.54
2023-01-10T07:11:25.542Z,96.04
2023-01-10T07:13:57.120Z,96.08
2023-01-10T07:16:26.741Z,95.93
2023-01-10T07:18:59.835Z,95.91
2023-01-10T07:21:35.019Z,96.24
2023-01-10T07:24:05.770Z,96.30
2023-01-10T07:26:42.489Z,95.91
2023-01-10T07:29:22.508Z,95.79
2023-01-10T07:31:56.419Z,96.04
2023-01-10T07:34:28.533Z,96.43
2023-01-10T07:36:57.954Z,96.48
2023-01-10T07:43:52.701Z,96.47
2023-01-10T07:46:23.938Z,96.42
2023-01-10T07:48:53.307Z,96.26
2023-01-10T07:51:23.966Z,96.01
2023-01-10T07:53:53.130Z,96.01
2023-01-10T07:56:27.382Z,96.32
2023-01-10T08:03:12.643Z,96.05
2023-01-10T08:08:51.402Z,96.34
2023-01-10T08:12:29.626Z,96.13
2023-01-10T08:15:53.714Z,96.54
2023-01-10T08:23:42.155Z,95.83
2023-01-10T08:27:29.581Z,95.99
2023-01-10T08:40:33.254Z,95.80
2023-01-10T08:43:55.455Z,95.98
2023-01-10T08:46:26.168Z,96.42
2023-01-10T08:48:55.966Z,96.74
2023-01-10T08:55:43.173Z,96.56
2023-01-10T08:58:14.529Z,96.46
2023-01-10T09:00:46.719Z,96.26
2023-01-10T09:03:15.810Z,96.05
2023-01-10T09:06:05.875Z,95.89
2023-01-10T09:08:38.739Z,96.27
2023-01-10T09:11:08.467Z,95.83
2023-01-10T09:13:41.382Z,95.35
2023-01-10T09:16:11.998Z,95.40
2023-01-10T09:18:44.830Z,95.45
2023-01-10T09:21:22.087Z,95.29
2023-01-10T09:24:09.364Z,95.52
2023-01-10T09:26:39.036Z,95.34
2023-01-10T09:29:09.063Z,95.66
2023-01-10T09:31:38.818Z,95.57
2023-01-10T09:34:09.005Z,95.98
2023-01-10T09:36:39.885Z,95.86
2023-01-10T09:39:10.868Z,95.98
2023-01-10T09:41:42.635Z,95.87
2023-01-10T09:44:57.132Z,96.00
2023-01-10T09:47:47.374Z,95.99
2023-01-10T09:50:20.075Z,95.76
2023-01-10T09:52:59.509Z,95.66
2023-01-10T09:55:50.924Z,96.03
2023-01-10T09:58:27.906Z,96.08
2023-01-10T10:01:15.316Z,96.47
2023-01-10T10:04:01.084Z,96.43
2023-01-10T10:06:44.206Z,96.62
2023-01-10T10:09:35.204Z,96.66
2023-01-10T10:12:23.370Z,96.85
2023-01-10T10:14:53.854Z,96.58
2023-01-10T10:17:46.426Z,96.41
2023-01-10T10:20:28.650Z,96.78
2023-01-10T10:27:28.166Z,96.64
2023-01-10T10:30:35.558Z,96.36
2023-01-10T10:33:34.620Z,96.06
2023-01-10T10:36:10.916Z,96.78
2023-01-10T10:38:47.513Z,97.32
2023-01-10T10:41:52.879Z,97.07
2023-01-10T10:44:45.692Z,97.18
2023-01-10T10:47:34.816Z,96.85
2023-01-10T10:50:16.037Z,96.57
2023-01-10T10:52:51.653Z,96.78
2023-01-10T10:55:28.207Z,96.92
2023-01-10T10:58:01.056Z,96.75
2023-01-10T11:00:31.353Z,96.81
2023-01-10T11:03:03.423Z,96.03
2023-01-10T11:05:39.104Z,95.98
2023-01-10T11:08:23.212Z,96.06
2023-01-10T11:10:55.244Z,96.40
2023-01-10T11:14:10.104Z,96.29
2023-01-10T11:16:40.852Z,96.35
2023-01-10T11:19:18.768Z,96.26
2023-01-10T11:22:00.145Z,95.97
2023-01-10T11:24:57.188Z,96.21
2023-01-10T11:27:32.789Z,95.54
2023-01-10T11:30:04.724Z,95.46
2023-01-10T11:32:40.294Z,96.01
2023-01-10T11:36:00.266Z,96.57
2023-01-10T11:39:37.126Z,96.09
2023-01-10T11:43:34.601Z,95.96
2023-01-10T11:46:45.068Z,96.79
2023-01-10T11:49:26.121Z,97.00
2023-01-10T11:52:25.141Z,96.92
2023-01-10T11:56:25.368Z,97.14
2023-01-10T12:00:04.485Z,97.28
2023-01-10T12:07:06.857Z,96.98
2023-01-10T12:09:40.969Z,96.25
2023-01-10T12:12:22.813Z,95.66
2023-01-10T12:14:56.111Z,96.06
2023-01-10T12:17:27.220Z,95.93
2023-01-10T12:20:00.791Z,95.74
2023-01-10T12:22:39.543Z,96.66
2023-01-10T12:25:38.655Z,96.67
2023-01-10T12:28:20.051Z,96.57
2023-01-10T12:30:52.169Z,96.40
2023-01-10T12:33:55.184Z,96.38
2023-01-10T12:36:53.638Z,96.66
2023-01-10T12:47:32.683Z,96.15
2023-01-10T12:50:36.025Z,96.27
2023-01-10T12:53:15.075Z,96.60
2023-01-10T12:56:55.834Z,96.61
2023-01-10T13:00:19.802Z,96.82
2023-01-10T13:03:12.649Z,96.39
2023-01-10T13:05:56.001Z,96.31
2023-01-10T13:08:46.073Z,96.57
2023-01-10T13:11:57.679Z,96.99
2023-01-10T13:15:35.560Z,96.98
2023-01-10T13:18:29.302Z,96.76
2023-01-10T13:21:10.388Z,96.75
2023-01-10T13:23:47.605Z,96.77
2023-01-10T13:26:19.467Z,96.67
2023-01-10T13:28:55.566Z,96.54
2023-01-10T13:31:26.973Z,96.88
2023-01-10T13:34:00.172Z,96.72
2023-01-10T13:36:37.153Z,96.70
2023-01-10T13:39:09.763Z,97.05
2023-01-10T13:42:16.900Z,97.10
2023-01-10T13:45:03.391Z,96.81
2023-01-10T13:47:46.614Z,96.76
2023-01-10T13:50:46.943Z,96.21
2023-01-10T13:53:39.814Z,96.62
2023-01-10T13:56:42.601Z,96.65
2023-01-10T13:59:46.544Z,96.81
2023-01-10T14:02:56.754Z,96.34
2023-01-10T14:06:49.428Z,96.33
2023-01-10T14:09:24.199Z,96.50
2023-01-10T14:12:19.271Z,96.76
2023-01-10T14:16:03.187Z,96.99
2023-01-10T14:19:28.041Z,96.81
2023-01-10T14:30:26.576Z,96.72
2023-01-10T14:33:44.982Z,96.68
2023-01-10T14:37:01.059Z,96.90
2023-01-10T14:39:57.461Z,97.24
2023-01-10T14:43:28.151Z,97.46
2023-01-10T14:46:22.026Z,97.24
2023-01-10T14:49:43.942Z,97.21
2023-01-10T14:52:27.723Z,97.14
2023-01-10T14:54:58.653Z,97.20
2023-01-10T14:58:28.058Z,97.22
2023-01-10T15:01:40.353Z,97.07
2023-01-10T15:05:39.741Z,97.18
2023-01-10T15:08:18.786Z,97.13
2023-01-10T15:10:52.439Z,96.82
2023-01-10T15:14:23.652Z,96.98
2023-01-10T15:17:37.963Z,97.30
2023-01-10T15:20:08.122Z,97.25
2023-01-10T15:22:40.386Z,97.02
2023-01-10T15:25:19.966Z,97.45
2023-01-10T15:27:55.593Z,97.61
2023-01-10T15:30:59.952Z,97.75
2023-01-10T15:33:33.587Z,97.40
2023-01-10T15:36:15.139Z,97.49
2023-01-10T15:38:46.667Z,97.08
2023-01-10T15:41:20.691Z,97.22
2023-01-10T15:43:56.042Z,97.45
2023-01-10T15:46:29.814Z,97.37
2023-01-10T15:49:24.176Z,96.97
2023-01-10T15:51:58.000Z,97.12
2023-01-10T15:55:07.621Z,97.14
2023-01-10T15:58:40.204Z,97.04
2023-01-10T16:01:18.002Z,97.26
2023-01-10T16:03:58.031Z,97.01
2023-01-10T16:06:28.532Z,97.07
2023-01-10T16:09:02.574Z,97.25
2023-01-10T16:12:12.290Z,97.28
2023-01-10T16:14:41.538Z,97.34
2023-01-10T16:17:13.323Z,97.45
2023-01-10T16:19:43.335Z,97.59
2023-01-10T16:22:19.048Z,97.31
2023-01-10T16:24:52.851Z,97.21
2023-01-10T16:27:22.887Z,97.26
2023-01-10T16:29:55.007Z,97.36
2023-01-10T16:32:25.701Z,97.38
2023-01-10T16:34:56.928Z,97.23
2023-01-10T16:37:26.334Z,97.32
2023-01-10T16:39:58.245Z,97.26
2023-01-10T16:42:46.292Z,97.30
2023-01-10T16:45:20.259Z,97.39
2023-01-10T16:47:50.048Z,97.23
2023-01-10T16:50:22.709Z,97.32
2023-01-10T16:52:56.353Z,97.28
2023-01-10T16:55:35.027Z,97.38
2023-01-10T16:58:04.994Z,97.30
2023-01-10T17:00:37.385Z,97.34
2023-01-10T17:03:10.600Z,97.54
2023-01-10T17:05:42.257Z,97.57
2023-01-10T17:08:19.816Z,97.54
2023-01-10T17:10:52.816Z,97.20
2023-01-10T17:13:25.469Z,97.22
2023-01-10T17:15:56.197Z,97.23
2023-01-10T17:18:28.861Z,97.34
2023-01-10T17:21:01.283Z,97.09
2023-01-10T17:23:35.564Z,97.26
2023-01-10T17:26:06.154Z,97.19
2023-01-10T17:31:48.553Z,97.08
2023-01-10T17:35:11.356Z,97.17
2023-01-10T17:38:43.696Z,97.28
2023-01-10T17:58:37.817Z,97.91
2023-01-10T18:05:50.768Z,97.73
2023-01-10T18:08:15.334Z,97.77
2023-01-10T18:10:45.155Z,97.59
2023-01-10T18:17:38.338Z,97.38
2023-01-10T18:21:03.610Z,97.51
2023-01-10T18:24:33.319Z,97.85
2023-01-10T18:27:46.259Z,97.85
2023-01-10T18:30:41.157Z,97.64
2023-01-10T18:33:54.026Z,97.55
2023-01-10T18:37:08.254Z,97.65
2023-01-10T18:40:09.982Z,97.63
2023-01-10T18:43:04.781Z,97.82
2023-01-10T18:47:14.008Z,97.83
2023-01-10T18:50:49.941Z,97.69
2023-01-10T18:54:29.528Z,97.75
2023-01-10T18:57:26.278Z,97.92
2023-01-10T19:00:05.203Z,97.88
2023-01-10T19:02:46.007Z,97.89
2023-01-10T19:06:12.929Z,97.78
2023-01-10T19:09:05.843Z,97.72
2023-01-10T19:11:43.581Z,97.75
2023-01-10T19:14:24.357Z,97.84
2023-01-10T19:17:02.026Z,97.89
2023-01-10T19:19:41.168Z,97.89
2023-01-10T19:22:52.921Z,98.08
2023-01-10T19:25:43.519Z,98.20
2023-01-10T19:29:13.651Z,98.23
2023-01-10T19:32:33.252Z,98.31
2023-01-10T19:35:59.885Z,98.26
2023-01-10T19:39:56.562Z,98.41
2023-01-10T19:43:50.074Z,98.63
2023-01-10T19:47:22.924Z,98.32
2023-01-10T19:50:38.750Z,97.98
2023-01-10T19:53:10.287Z,98.12
2023-01-10T19:56:05.181Z,98.08
2023-01-10T19:58:47.295Z,97.92
2023-01-10T20:01:26.061Z,98.11
2023-01-10T20:04:04.361Z,97.84
2023-01-10T20:06:38.505Z,97.87
2023-01-10T20:09:10.866Z,97.67
2023-01-10T20:11:43.492Z,97.80
2023-01-10T20:14:17.147Z,97.62
2023-01-10T20:16:50.619Z,97.89
2023-01-10T20:19:25.959Z,98.00
2023-01-10T20:22:16.199Z,97.88
2023-01-10T20:24:49.577Z,97.64
2023-01-10T20:27:22.081Z,98.13
2023-01-10T20:29:54.888Z,97.88
2023-01-10T20:32:25.276Z,98.14
2023-01-10T20:34:57.072Z,98.19
2023-01-10T20:37:28.868Z,98.53
2023-01-10T20:39:59.690Z,98.23
2023-01-10T20:42:29.584Z,98.39
2023-01-10T20:45:02.429Z,98.10
2023-01-10T20:47:38.762Z,97.82
2023-01-10T20:50:09.912Z,97.86
2023-01-10T20:52:39.891Z,97.99
2023-01-10T20:55:10.274Z,97.88
2023-01-10T20:57:43.282Z,98.13
2023-01-10T21:00:13.842Z,98.12
2023-01-10T21:02:48.193Z,98.20
2023-01-10T21:05:18.935Z,98.06
2023-01-10T21:07:49.093Z,97.95
2023-01-10T21:10:21.282Z,97.65
2023-01-10T21:12:50.801Z,97.45
2023-01-10T21:15:24.101Z,97.56
2023-01-10T21:17:54.582Z,97.65
2023-01-10T21:20:28.656Z,97.83
2023-01-10T21:23:00.068Z,97.94
2023-01-10T21:25:32.095Z,98.25
2023-01-10T21:28:02.767Z,98.14
2023-01-10T21:30:32.812Z,98.27
2023-01-10T21:33:03.944Z,98.35
2023-01-10T21:35:34.768Z,98.01
2023-01-10T21:38:07.072Z,98.27
2023-01-10T21:40:40.119Z,98.23
2023-01-10T21:43:10.365Z,98.06
2023-01-10T21:45:42.709Z,97.95
2023-01-10T21:48:11.950Z,98.28
2023-01-10T21:50:43.748Z,98.20
2023-01-10T21:53:13.047Z,98.22
2023-01-10T21:55:46.135Z,98.30
2023-01-10T21:58:19.244Z,98.12
2023-01-10T22:00:48.811Z,98.22
2023-01-10T22:03:19.998Z,98.53
2023-01-10T22:05:50.410Z,98.54
2023-01-10T22:08:19.244Z,98.62
2023-01-10T22:10:48.802Z,98.47
2023-01-10T22:13:18.987Z,98.63
2023-01-10T22:15:49.379Z,98.49
2023-01-10T22:18:21.179Z,98.63
2023-01-10T22:20:51.639Z,98.53
2023-01-10T22:23:21.630Z,98.65
2023-01-10T22:26:22.188Z,98.83
2023-01-10T22:28:52.636Z,99.11
2023-01-10T22:31:23.616Z,98.83
2023-01-10T22:33:54.233Z,98.48
2023-01-10T22:36:24.534Z,98.61
2023-01-10T22:38:55.837Z,98.49
2023-01-10T22:41:27.130Z,98.55
2023-01-10T22:43:57.474Z,98.67
2023-01-10T22:46:34.172Z,98.61
2023-01-10T22:49:04.111Z,98.49
2023-01-10T22:51:35.912Z,98.52
2023-01-10T22:54:07.360Z,98.58
2023-01-10T22:56:38.101Z,98.30
2023-01-10T22:59:08.095Z,98.37
2023-01-10T23:04:27.090Z,98.24
2023-01-10T23:06:58.951Z,98.10
2023-01-10T23:09:32.179Z,98.22
2023-01-10T23:12:01.680Z,98.32
2023-01-10T23:14:33.529Z,98.48
2023-01-10T23:17:03.303Z,98.54
2023-01-10T23:19:35.091Z,98.37
2023-01-10T23:22:05.107Z,98.24
2023-01-10T23:24:36.916Z,98.34
2023-01-10T23:27:06.761Z,98.33
2023-01-10T23:29:39.034Z,98.10
2023-01-10T23:32:08.476Z,98.24
2023-01-10T23:34:41.654Z,98.27
2023-01-10T23:37:13.876Z,98.20
2023-01-10T23:39:44.537Z,98.23
2023-01-10T23:42:13.722Z,98.38
2023-01-10T23:44:45.435Z,98.39
2023-01-10T23:47:17.682Z,98.45
2023-01-10T23:49:47.473Z,98.62
2023-01-10T23:52:17.049Z,98.48
2023-01-10T23:54:47.231Z,98.28
2023-01-10T23:57:23.095Z,98.59
2023-01-10T23:59:53.912Z,98.49
